Terminal Aerodrome Forecast
Issued by NWS Charleston, WV

Current Version | Previous Version | Text Only | Print | Product List | Glossary Off
Versions: 1 2 3 4 5 6 7 8 9 10 11 12 13 14 15 16 17 18 19 20 21 22 23 24 25 26 27

000
FTUS41 KRLX 292300 RRA
TAFHTS
TAF
KHTS 292345Z 3000/3024 28011G23KT P6SM -SHRA OVC035
     FM300100 28010G20KT P6SM -SHRA OVC025
     FM300300 28008G14KT P6SM -SHRA OVC015
     FM300500 28008G14KT P6SM -SHRASN OVC015
     FM300700 28008G14KT P6SM -SHSN OVC015
     FM301400 31010G20KT P6SM -SHSN BKN035
     FM301900 32009G16KT P6SM -SHSN BKN035
     FM302100 32007KT P6SM BKN035=

USA.gov is the U.S. government's official web portal to all federal, state and local government web resources and services.